Cedar City, Utah Weather observations

Data are for observation ending at time listed.
 Day   Time    Ave.   Ave.  Ave.  Vector   Max.   Stn.    Total    Solar   Ave.  
  of    of     Air    Rel.  Wind   Wind    Wind   Baro.  Precip.   Rad.    Soil  
Year   Day     Temp.  Hum.  Speed  Dir.    Gust   Pres.                    Temp. 
2015   (MST)    F      %     mph   deg.    mph     mb.     in.     W/m2     F   
------------------------------------------------------------------------------
 106   22:00   39.0    74    1.2   351      2.1   823.7    0.00       0    47.2
 106   22:10   38.8    74    1.7   323      3.8   823.7    0.00       0    47.1
 106   22:20   38.4    74    1.6   343      3.6   823.7    0.00       0    47.1
 106   22:30   38.2    77    1.7    66      3.4   823.8    0.00       0    47.1
 106   22:40   38.1    78    1.3    44      2.3   823.9    0.00       0    47.0
 106   22:50   37.9    78    1.2   244      2.4   824.0    0.00       0    47.0
 106   23:00   37.5    80    1.1   242      1.8   824.0    0.00       0    47.0
 106   23:10   36.9    82    1.4   193      2.6   824.1    0.00       0    47.0
 106   23:20   36.1    85    1.0   159      2.6   824.2    0.00       0    46.9
 106   23:30   35.8    86    1.4   182      2.4   824.3    0.00       0    46.9
 106   23:40   35.1    87    1.5   217      2.8   824.2    0.00       0    46.9
 106   23:50   34.4    87    1.7   151      4.6   824.2    0.00       0    46.8
 107    0:00   34.5    86    1.7   160      4.3   824.1    0.00       0    46.8
 107    0:10   34.1    85    0.9   155      1.5   824.1    0.00       0    46.7
 107    0:20   33.9    85    2.0    46      3.6   824.1    0.00       0    46.7
 107    0:30   34.1    81    2.4    50      4.2   824.2    0.00       0    46.7
 107    0:40   34.3    79    3.4    94      5.5   824.1    0.00       0    46.6
 107    0:50   34.6    76    3.7    89      5.7   824.1    0.00       0    46.6
 107    1:00   34.5    74    4.3    91      7.5   824.1    0.00       0    46.5
 107    1:10   34.1    73    4.5    98      8.3   824.0    0.00       0    46.5
 107    1:20   33.9    72    5.1    96      7.4   823.8    0.00       0    46.5
 107    1:30   33.7    71    4.4    99      8.3   823.8    0.00       0    46.4
 107    1:40   33.7    70    6.2    98     10.5   823.7    0.00       0    46.3
 107    1:50   33.8    69    5.3    99      9.4   823.6    0.00       0    46.3
 107    2:00   33.6    68    5.7    99      9.6   823.5    0.00       0    46.2
 107    2:10   33.5    67    5.6    99     10.2   823.5    0.00       0    46.1
 107    2:20   33.1    68    4.4   100      8.2   823.6    0.00       0    46.1
 107    2:30   32.8    68    3.7   123      6.8   823.6    0.00       0    46.0
 107    2:40   32.9    69    3.3   121      7.1   823.6    0.00       0    46.0
 107    2:50   32.7    68    5.4   107      8.2   823.6    0.00       0    45.9
 107    3:00   32.3    68    5.8    99      9.3   823.7    0.00       0    45.9
 107    3:10   32.1    68    6.3    98      9.1   823.6    0.00       0    45.8
 107    3:20   31.9    68    5.5    91      9.6   823.5    0.00       0    45.8
 107    3:30   31.7    68    6.1    90      9.8   823.5    0.00       0    45.7
 107    3:40   32.0    67    6.2    96     11.0   823.4    0.00       0    45.6
 107    3:50   32.1    67    4.7   111      8.6   823.4    0.00       0    45.6
 107    4:00   32.1    70    3.6   117      7.0   823.3    0.00       0    45.5
 107    4:10   32.3    69    3.1   115      5.7   823.2    0.00       0    45.5
 107    4:20   32.3    67    5.1   105     10.4   823.1    0.00       0    45.4
 107    4:30   32.5    66    5.5   100      9.5   823.0    0.00       0    45.4
 107    4:40   32.3    67    5.1   102      7.4   823.0    0.00       0    45.3
 107    4:50   32.2    68    4.7    95      7.5   823.1    0.00       0    45.3
 107    5:00   32.4    68    4.4    96      6.4   823.1    0.00       0    45.2
 107    5:10   32.6    68    2.8    98      5.5   823.2    0.00       0    45.2
 107    5:20   31.8    71    1.1   286      2.9   823.2    0.00       0    45.1
 107    5:30   30.9    75    0.9   174      1.8   823.1    0.00       0    45.1
 107    5:40   30.2    78    0.5   224      1.4   823.1    0.00       0    45.0
 107    5:50   30.0    80    0.4   152      1.5   823.1    0.00       0    44.9
 107    6:00   30.5    79    0.7   129      1.5   823.1    0.00       3    44.9
 107    6:10   31.2    78    2.0    90      3.9   823.1    0.00       6    44.9
 107    6:20   32.2    75    2.8    91      4.5   823.0    0.00      14    44.9
 107    6:30   32.4    74    3.1    71      4.6   823.2    0.00      22    44.8
 107    6:40   32.5    74    2.3    78      4.2   823.2    0.00      23    44.8
 107    6:50   32.9    74    2.2    79      3.5   823.2    0.00      21    44.8
 107    7:00   33.5    74    2.5    72      4.0   823.2    0.00      18    44.7
 107    7:10   33.8    73    3.0    68      4.7   823.4    0.00      38    44.7
 107    7:20   34.2    72    2.7    59      5.1   823.5    0.00      49    44.7
 107    7:30   34.6    72    1.9    53      3.0   823.6    0.00      51    44.7
 107    7:40   35.2    71    2.0    63      3.6   823.6    0.00      79    44.7
 107    7:50   36.1    70    0.6   117      2.3   823.5    0.00      96    44.7
 107    8:00   37.1    67    0.7   334      2.0   823.5    0.00     142    44.7
 107    8:10   37.6    66    1.0   320      2.6   823.6    0.00     148    44.7
 107    8:20   38.4    65    1.1   318      3.1   823.6    0.00     207    44.7
 107    8:30   39.5    62    0.9   298      2.4   823.5    0.00     196    44.7
 107    8:40   40.2    61    1.0   338      2.3   823.6    0.00     227    44.8
 107    8:50   40.6    61    1.9   282      4.6   823.7    0.00     283    44.8
 107    9:00   41.6    61    1.0   280      3.7   823.7    0.00     335    44.8
 107    9:10   41.5    60    2.2   285      5.3   823.7    0.00     445    44.9
 107    9:20   41.9    60    1.7   310      4.3   823.7    0.00     540    44.9
 107    9:30   41.9    62    2.7   344      6.1   823.7    0.00     516    45.0
 107    9:40   42.3    62    2.9    28      6.8   823.8    0.00     458    45.0
 107    9:50   42.1    64    2.1   324      6.7   824.0    0.00     389    45.1
 107   10:00   42.7    64    3.1   335      6.4   824.0    0.00     485    45.2
 107   10:10   42.6    63    4.2     9     11.8   824.0    0.00     333    45.2
 107   10:20   43.0    61    5.1    13     10.1   823.9    0.00     379    45.3
 107   10:30   43.5    59    6.3    27     15.7   823.8    0.00     378    45.4
 107   10:40   43.1    58    6.2    18     14.8   823.9    0.00     353    45.5
 107   10:50   44.1    58    5.3    16     12.2   823.9    0.00     537    45.6
 107   11:00   45.4    58    4.8    28     11.8   823.8    0.00     823    45.7
 107   11:10   45.6    54    5.8    19     11.9   823.8    0.00     486    45.8
 107   11:20   44.9    52    6.0    24     12.1   823.8    0.00     199    45.8
 107   11:30   45.8    50    6.2    27     15.7   823.8    0.00     602    45.9
 107   11:40   46.8    48    8.2    26     15.4   823.6    0.00     815    46.0
 107   11:50   47.5    48    6.9    21     16.4   823.6    0.00     808    46.1
 107   12:00   47.9    47    6.0     9     13.4   823.6    0.00     679    46.2
 107   12:10   47.9    46    7.6    17     18.8   823.6    0.00     663    46.3
 107   12:20   47.8    47    6.8    20     13.2   823.5    0.00     575    46.3
 107   12:30   48.2    47    6.6    26     14.3   823.4    0.00     738    46.4
 107   12:40   48.8    47    7.2    19     13.6   823.3    0.00     806    46.5
 107   12:50   48.0    47    7.5    29     17.8   823.3    0.00     618    46.6
 107   13:00   48.7    45    6.9    33     13.7   823.1    0.00     580    46.7
 107   13:10   48.2    45    6.6    23     14.3   823.2    0.00     269    46.8
 107   13:20   48.0    46    6.2    21     13.2   823.2    0.00     222    46.9
 107   13:30   47.7    46    5.5    38     14.5   823.1    0.00     170    47.0
 107   13:40   47.6    47    4.1    31     10.0   823.1    0.00     199    47.0
 107   13:50   48.5    44    5.3    23     12.3   822.9    0.00     259    47.1
 107   14:00   48.5    45    5.9    44     11.2   822.8    0.00     715    47.2
 107   14:10   49.9    43    5.8    38     11.5   822.8    0.00     531    47.4
 107   14:20   49.5    44    5.2    52     12.9   822.8    0.00     301    47.4
 107   14:30   49.9    42    4.7    39      9.6   822.8    0.00     383    47.5
 107   14:40   49.9    43    5.8    30     12.5   822.7    0.00     241    47.6
 107   14:50   49.2    42    6.2    62     11.5   822.7    0.00     158    47.6
 107   15:00   49.6    42    5.8    39     12.4   822.6    0.00     197    47.7
 107   15:10   50.1    41    4.5    43      9.9   822.6    0.00     250    47.8
 107   15:20   50.4    41    3.3    34      8.0   822.5    0.00     257    47.9
 107   15:30   51.5    40    3.8    32      8.8   822.3    0.00     545    48.0
 107   15:40   52.2    39    4.0    31      9.1   822.3    0.00     409    48.1
 107   15:50   52.0    39    5.1    11     16.1   822.3    0.00     330    48.1
 107   16:00   51.7    38    4.6     0      9.9   822.2    0.00     215    48.2
 107   16:10   51.7    37    4.9     5     10.7   822.2    0.00     209    48.3
 107   16:20   52.0    37    5.1    19     12.0   822.2    0.00     236    48.4
 107   16:30   52.4    37    3.6     6      9.9   822.2    0.00     288    48.5
 107   16:40   52.5    36    5.2    17     11.8   822.2    0.00     206    48.5
 107   16:50   52.9    36    5.2    13     12.6   822.1    0.00     545    48.6
 107   17:00   54.0    35    5.1    43     10.3   822.1    0.00     573    48.7
 107   17:10   53.7    35    6.4    55     12.2   822.1    0.00     535    48.8
 107   17:20   53.5    35    6.1    56     12.4   822.0    0.00     458    48.9
 107   17:30   53.8    36    6.5    41     12.0   822.0    0.00     380    48.9
 107   17:40   53.7    35    6.6    43     13.5   821.9    0.00     300    49.0
 107   17:50   53.8    35    6.2    53     10.4   821.8    0.00     253    49.0
 107   18:00   53.6    35    7.0    47     11.6   821.8    0.00     206    49.1
 107   18:10   53.5    35    4.8    42     11.1   821.7    0.00     176    49.1
 107   18:20   53.8    35    5.8    47      9.6   821.7    0.00     148    49.1
 107   18:30   53.2    35    5.6    44     12.9   821.7    0.00      95    49.2
 107   18:40   53.1    36    4.1    27      9.6   821.7    0.00      76    49.2
 107   18:50   52.6    37    4.8    44      9.1   821.7    0.00      30    49.3
 107   19:00   52.3    37    4.9    49      8.9   821.7    0.00      19    49.3
 107   19:10   52.0    37    5.0    54      8.3   821.7    0.00       9    49.4
 107   19:20   51.6    38    3.5    39      7.1   821.7    0.00       4    49.4
 107   19:30   51.4    37    3.8    42      9.5   821.7    0.00       0    49.4
 107   19:40   51.2    37    3.5    44      6.8   821.9    0.00       0    49.4
 107   19:50   51.2    37    3.7    43      9.4   821.9    0.00       0    49.4
 107   20:00   51.2    37    4.4    42      8.5   822.0    0.00       0    49.4
 107   20:10   51.0    37    2.7    45      5.6   822.1    0.00       0    49.4
 107   20:20   50.8    37    2.4    41      4.1   822.2    0.00       0    49.4
 107   20:30   50.9    36    3.4    48      7.4   822.3    0.00       0    49.4
 107   20:40   50.9    36    3.9    45      6.9   822.4    0.00       0    49.4
 107   20:50   51.1    35    3.1    46      5.9   822.4    0.00       0    49.3
 107   21:00   50.7    36    2.2    35      5.0   822.4    0.00       0    49.3
 107   21:10   50.6    36    1.6    30      4.5   822.5    0.00       0    49.3
 107   21:20   49.9    37    1.1    43      2.6   822.6    0.00       0    49.2
 107   21:30   49.5    38    0.8    78      2.0   822.6    0.00       0    49.2
 107   21:40   48.4    42    0.4   137      1.8   822.7    0.00       0    49.2
 107   21:50   47.5    44    0.5   140      1.4   822.7    0.00       0    49.2

Return to Cedar City, Utah graphs page.


Western Regional Climate Center,wrcc@dri.edu